createdAt,value
2019-02-09T00:00:50.545Z,0.75
2019-02-09T00:02:50.543Z,0.76
2019-02-09T00:04:49.985Z,0.81
2019-02-09T00:06:50.142Z,0.82
2019-02-09T00:08:50.154Z,0.84
2019-02-09T00:10:50.189Z,0.83
2019-02-09T00:12:50.210Z,0.78
2019-02-09T00:14:50.245Z,0.78
2019-02-09T00:16:50.474Z,0.67
2019-02-09T00:18:50.406Z,0.67
2019-02-09T00:20:50.526Z,0.59
2019-02-09T00:22:50.505Z,0.57
2019-02-09T00:24:50.578Z,0.51
2019-02-09T00:26:49.698Z,0.50
2019-02-09T00:28:49.726Z,0.45
2019-02-09T00:30:49.726Z,0.41
2019-02-09T00:32:49.919Z,0.41
2019-02-09T00:34:50.326Z,0.44
2019-02-09T00:36:50.337Z,0.47
2019-02-09T00:38:50.480Z,0.50
2019-02-09T00:40:50.516Z,0.52
2019-02-09T00:42:50.679Z,0.51
2019-02-09T00:44:50.658Z,0.49
2019-02-09T00:46:49.786Z,0.48
2019-02-09T00:48:49.880Z,0.44
2019-02-09T00:50:50.051Z,0.49
2019-02-09T00:52:50.039Z,0.47
2019-02-09T00:54:50.065Z,0.48
2019-02-09T00:56:50.347Z,0.50
2019-02-09T00:58:50.445Z,0.56
2019-02-09T01:00:50.480Z,0.60
2019-02-09T01:02:50.402Z,0.74
2019-02-09T01:04:49.826Z,0.74
2019-02-09T01:06:50.031Z,0.71
2019-02-09T01:08:50.099Z,0.71
2019-02-09T01:10:50.171Z,0.70
2019-02-09T01:12:50.180Z,0.72
2019-02-09T01:14:50.192Z,0.74
2019-02-09T01:16:50.378Z,0.74
2019-02-09T01:18:50.471Z,0.72
2019-02-09T01:20:50.387Z,0.83
2019-02-09T01:22:50.413Z,0.89
2019-02-09T01:24:50.397Z,0.92
2019-02-09T01:26:50.580Z,0.93
2019-02-09T01:28:50.692Z,0.93
2019-02-09T01:30:49.821Z,0.92
2019-02-09T01:32:49.857Z,0.91
2019-02-09T01:34:50.217Z,0.90
2019-02-09T01:36:50.324Z,0.90
2019-02-09T05:50:49.962Z,2.14
2019-02-09T05:52:49.970Z,2.14
2019-02-09T05:54:50.091Z,2.16
2019-02-09T05:56:50.299Z,2.17
2019-02-09T05:58:50.304Z,2.17
2019-02-09T06:00:50.404Z,2.22
2019-02-09T06:02:50.418Z,2.21
2019-02-09T06:04:50.004Z,2.22
2019-02-09T06:06:50.313Z,2.23
2019-02-09T06:08:50.257Z,2.26
2019-02-09T06:10:50.357Z,2.32
2019-02-09T06:12:50.321Z,2.43
2019-02-09T06:14:50.329Z,2.46
2019-02-09T06:16:50.414Z,2.55
2019-02-09T06:18:50.475Z,2.59
2019-02-09T06:20:50.532Z,2.60
2019-02-09T06:22:50.561Z,2.66
2019-02-09T06:24:50.584Z,2.77
2019-02-09T06:26:49.879Z,2.83
2019-02-09T06:28:49.914Z,2.92
2019-02-09T06:30:49.937Z,2.99
2019-02-09T06:32:49.991Z,2.99
2019-02-09T06:34:50.273Z,3.04
2019-02-09T06:36:49.833Z,3.03
2019-02-09T06:38:49.923Z,3.03
2019-02-09T06:40:49.975Z,2.99
2019-02-09T06:42:50.011Z,2.88
2019-02-09T06:44:49.987Z,2.88
2019-02-09T06:46:50.186Z,2.99
2019-02-09T06:48:50.270Z,3.01
2019-02-09T06:50:50.357Z,3.01
2019-02-09T06:52:50.449Z,3.03
2019-02-09T06:54:50.469Z,3.05
2019-02-09T06:56:49.721Z,3.04
2019-02-09T06:58:49.743Z,3.01
2019-02-09T07:00:49.866Z,3.02
2019-02-09T07:02:49.864Z,3.09
2019-02-09T07:04:50.276Z,3.21
2019-02-09T07:06:50.398Z,3.28
2019-02-09T07:08:50.402Z,3.36
2019-02-09T07:10:50.423Z,3.50
2019-02-09T07:12:50.408Z,3.63
2019-02-09T07:14:50.536Z,3.69
2019-02-09T07:16:49.732Z,3.73
2019-02-09T07:18:49.780Z,3.96
2019-02-09T07:20:49.800Z,4.04
2019-02-09T07:22:49.833Z,4.15
2019-02-09T07:24:49.951Z,4.23
2019-02-09T07:26:50.153Z,4.34
2019-02-09T07:28:50.113Z,4.37
2019-02-09T07:30:50.101Z,4.46
2019-02-09T07:32:50.185Z,4.53
2019-02-09T07:34:50.630Z,4.55
2019-02-09T07:36:49.881Z,4.54
2019-02-09T07:38:49.953Z,4.48
2019-02-09T07:40:49.908Z,4.43
2019-02-09T07:42:49.941Z,4.39
2019-02-09T07:44:50.125Z,4.50
2019-02-09T07:46:50.242Z,4.61
2019-02-09T07:48:50.259Z,4.79
2019-02-09T07:50:50.288Z,5.06
2019-02-09T07:52:50.351Z,5.20
2019-02-09T07:54:50.389Z,5.44
2019-02-09T07:56:50.563Z,5.61
2019-02-09T07:58:50.573Z,5.71
2019-02-09T08:00:50.519Z,5.86
2019-02-09T08:02:50.629Z,5.99
2019-02-09T08:04:50.210Z,6.03
2019-02-09T08:06:50.379Z,6.06
2019-02-09T08:08:50.398Z,6.12
2019-02-09T08:10:50.377Z,6.20
2019-02-09T08:12:50.457Z,6.33
2019-02-09T08:14:50.493Z,6.41
2019-02-09T08:16:49.737Z,6.57
2019-02-09T08:18:49.786Z,6.63
2019-02-09T08:20:49.835Z,6.77
2019-02-09T08:22:49.906Z,6.9
2019-02-09T08:24:49.987Z,7.0
2019-02-09T08:26:50.148Z,7.02
2019-02-09T08:28:50.107Z,7.07
2019-02-09T08:30:50.097Z,7.1
2019-02-09T08:32:50.139Z,7.1
2019-02-09T08:34:50.615Z,7.1
2019-02-09T08:36:49.824Z,7.10
2019-02-09T08:38:49.876Z,7.09
2019-02-09T08:40:49.975Z,7.07
2019-02-09T08:42:50.013Z,7.11
2019-02-09T08:44:50.087Z,7.12
2019-02-09T08:46:50.206Z,7.04
2019-02-09T08:48:50.287Z,6.98
2019-02-09T08:50:50.374Z,6.99
2019-02-09T08:52:50.388Z,7.04
2019-02-09T08:54:50.382Z,7.12
2019-02-09T08:56:50.601Z,7.20
2019-02-09T08:58:49.747Z,7.22
2019-02-09T09:00:49.839Z,7.20
2019-02-09T09:02:49.845Z,7.20
2019-02-09T09:04:50.361Z,7.23
2019-02-09T09:06:50.509Z,7.24
2019-02-09T09:08:50.507Z,7.22
2019-02-09T09:10:50.460Z,7.24
2019-02-09T09:12:50.475Z,7.24
2019-02-09T09:14:50.648Z,7.22
2019-02-09T09:16:49.824Z,7.24
2019-02-09T09:18:49.973Z,7.26
2019-02-09T09:20:49.974Z,7.22
2019-02-09T09:22:49.945Z,7.24
2019-02-09T09:24:50.075Z,7.26
2019-02-09T09:26:50.188Z,7.33
2019-02-09T09:28:50.246Z,7.37
2019-02-09T09:30:50.228Z,7.46
2019-02-09T09:32:50.210Z,7.47
2019-02-09T09:34:50.596Z,7.49
2019-02-09T09:36:49.858Z,7.51
2019-02-09T09:38:49.965Z,7.51
2019-02-09T09:40:50.015Z,7.48
2019-02-09T09:42:50.075Z,7.50
2019-02-09T09:44:50.187Z,7.47
2019-02-09T09:46:50.333Z,7.44
2019-02-09T09:48:50.342Z,7.45
2019-02-09T09:50:50.323Z,7.50
2019-02-09T09:52:50.411Z,7.56
2019-02-09T09:54:50.464Z,7.62
2019-02-09T09:56:50.581Z,7.69
2019-02-09T09:58:49.758Z,7.69
2019-02-09T10:00:49.706Z,7.75
2019-02-09T10:02:49.696Z,8.02
2019-02-09T10:04:50.358Z,8.16
2019-02-09T10:06:50.475Z,8.22
2019-02-09T10:08:50.588Z,8.22
2019-02-09T10:10:50.599Z,8.21
2019-02-09T10:12:50.569Z,8.21
2019-02-09T10:14:50.660Z,8.17
2019-02-09T10:16:49.941Z,8.19
2019-02-09T10:18:49.953Z,8.17
2019-02-09T10:20:50.008Z,8.16
2019-02-09T10:22:49.986Z,8.23
2019-02-09T10:24:50.182Z,8.36
2019-02-09T10:26:50.394Z,8.45
2019-02-09T10:28:50.501Z,8.70
2019-02-09T10:30:50.479Z,8.77
2019-02-09T10:32:50.467Z,8.80
2019-02-09T10:34:49.961Z,8.87
2019-02-09T10:36:50.164Z,8.88
2019-02-09T10:38:50.108Z,8.81
2019-02-09T10:40:50.110Z,8.62
2019-02-09T10:42:50.048Z,8.63
2019-02-09T10:44:50.134Z,8.74
2019-02-09T10:46:50.360Z,8.79
2019-02-09T10:48:50.389Z,8.84
2019-02-09T10:50:50.422Z,9.01
2019-02-09T10:52:50.371Z,9.33
2019-02-09T10:54:50.434Z,9.73
2019-02-09T10:56:50.751Z,9.8
2019-02-09T10:58:49.935Z,9.9
2019-02-09T11:00:49.947Z,9.9
2019-02-09T11:02:52.622Z,10.1
2019-02-09T11:04:50.146Z,10.1
2019-02-09T11:06:50.362Z,10.1
2019-02-09T11:08:50.482Z,10.1
2019-02-09T11:10:50.467Z,10.1
2019-02-09T11:12:50.527Z,10.2
2019-02-09T11:14:50.582Z,10.1
2019-02-09T11:16:49.779Z,10.1
2019-02-09T11:18:49.945Z,10.1
2019-02-09T11:20:49.936Z,10.1
2019-02-09T11:22:50.178Z,10.1
2019-02-09T11:24:50.388Z,10.1
2019-02-09T11:26:50.659Z,10.1
2019-02-09T11:28:49.925Z,10.1
2019-02-09T11:30:50.096Z,10.1
2019-02-09T11:32:50.350Z,10.1
2019-02-09T11:34:49.870Z,10.1
2019-02-09T11:36:50.206Z,10.0
2019-02-09T11:38:50.229Z,10.0
2019-02-09T11:40:51.183Z,9.88
2019-02-09T11:42:50.208Z,9.73
2019-02-09T11:44:50.151Z,9.60
2019-02-09T11:46:50.306Z,9.62
2019-02-09T11:48:50.445Z,9.57
2019-02-09T11:50:50.457Z,9.49
2019-02-09T11:52:50.752Z,9.47
2019-02-09T11:54:50.015Z,9.62
2019-02-09T11:56:50.381Z,9.94
2019-02-09T11:58:50.599Z,10.18
2019-02-09T12:00:50.817Z,10.2
2019-02-09T12:02:50.072Z,10.21
2019-02-09T12:04:50.618Z,10.13
2019-02-09T12:06:50.062Z,10.00
2019-02-09T12:08:50.281Z,10.00
2019-02-09T12:10:50.418Z,9.96
2019-02-09T12:12:50.664Z,9.96
2019-02-09T12:14:49.919Z,10.02
2019-02-09T12:16:50.226Z,10.02
2019-02-09T12:18:50.404Z,9.99
2019-02-09T12:20:50.486Z,9.99
2019-02-09T12:22:50.730Z,10.24
2019-02-09T12:24:49.970Z,10.24
2019-02-09T12:26:50.354Z,10.06
2019-02-09T12:28:50.472Z,10.04
2019-02-09T12:30:50.859Z,10.24
2019-02-09T12:32:50.184Z,10.34
2019-02-09T12:34:50.812Z,10.47
2019-02-09T12:36:50.105Z,10.57
2019-02-09T12:38:50.241Z,10.36
2019-02-09T12:40:50.419Z,10.26
2019-02-09T12:42:50.611Z,10.36
2019-02-09T12:44:49.977Z,10.49
2019-02-09T12:46:50.395Z,10.6
2019-02-09T12:48:50.530Z,10.6
2019-02-09T12:50:50.815Z,10.6
2019-02-09T12:52:50.158Z,10.7
2019-02-09T12:54:50.313Z,10.7
2019-02-09T12:56:50.542Z,10.7
2019-02-09T12:58:50.792Z,10.69
2019-02-09T13:00:50.074Z,10.47
2019-02-09T13:02:50.379Z,10.26
2019-02-09T13:04:49.968Z,10.25
2019-02-09T13:06:50.280Z,10.11
2019-02-09T13:08:50.511Z,10.20
2019-02-09T13:10:50.723Z,10.31
2019-02-09T13:12:49.992Z,10.26
2019-02-09T13:14:50.254Z,10.08
2019-02-09T13:16:50.512Z,10.07
2019-02-09T13:18:50.700Z,9.97
2019-02-09T13:20:49.984Z,9.97
2019-02-09T13:22:50.189Z,10.30
2019-02-09T13:24:50.357Z,10.50
2019-02-09T13:26:50.652Z,10.57
2019-02-09T13:28:49.951Z,10.6
2019-02-09T13:30:50.090Z,10.7
2019-02-09T13:32:50.386Z,10.7
2019-02-09T13:34:49.973Z,10.7
2019-02-09T13:36:50.305Z,10.7
2019-02-09T13:38:50.505Z,10.7
2019-02-09T13:40:50.823Z,10.6
2019-02-09T13:42:50.013Z,10.6
2019-02-09T13:44:50.242Z,10.5
2019-02-09T13:46:50.473Z,10.5
2019-02-09T13:48:50.696Z,10.6
2019-02-09T13:50:49.954Z,10.6
2019-02-09T13:52:50.098Z,10.6
2019-02-09T13:54:50.309Z,10.6
2019-02-09T13:56:50.675Z,10.6
2019-02-09T13:58:49.874Z,10.8
2019-02-09T14:00:50.044Z,10.9
2019-02-09T14:02:50.270Z,10.9
2019-02-09T14:04:50.001Z,10.9
2019-02-09T14:06:50.314Z,10.9
2019-02-09T14:08:50.477Z,10.9
2019-02-09T14:10:50.628Z,10.8
2019-02-09T14:12:50.771Z,10.8
2019-02-09T14:14:50.039Z,10.8
2019-02-09T14:16:50.406Z,10.8
2019-02-09T14:18:50.695Z,10.8
2019-02-09T14:20:49.920Z,10.7
2019-02-09T14:22:50.106Z,10.7
2019-02-09T14:24:50.361Z,10.7
2019-02-09T14:26:50.651Z,10.7
2019-02-09T14:28:49.944Z,10.6
2019-02-09T14:30:50.064Z,10.6
2019-02-09T14:32:50.254Z,10.6
2019-02-09T14:34:49.863Z,10.52
2019-02-09T14:36:50.336Z,10.33
2019-02-09T14:38:50.584Z,10.31
2019-02-09T14:40:50.764Z,10.27
2019-02-09T14:42:50.009Z,10.19
2019-02-09T14:44:49.993Z,10.16
2019-02-09T14:46:50.263Z,10.05
2019-02-09T14:48:50.293Z,9.97
2019-02-09T14:50:50.237Z,9.91
2019-02-09T14:52:50.243Z,9.81
2019-02-09T14:54:50.257Z,9.81
2019-02-09T14:56:50.511Z,9.68
2019-02-09T14:58:50.614Z,9.63
2019-02-09T15:00:50.746Z,9.56
2019-02-09T15:02:54.353Z,9.54
2019-02-09T15:04:49.887Z,9.52
2019-02-09T15:06:50.209Z,9.52
2019-02-09T15:08:50.227Z,9.50
2019-02-09T15:10:50.201Z,9.48
2019-02-09T15:12:50.230Z,9.45
2019-02-09T15:14:50.236Z,9.40
2019-02-09T15:16:50.385Z,9.36
2019-02-09T15:18:50.363Z,9.33
2019-02-09T15:20:50.393Z,9.31
2019-02-09T15:22:50.417Z,9.23
2019-02-09T15:24:50.463Z,9.15
2019-02-09T15:26:50.656Z,9.06
2019-02-09T15:28:50.682Z,9.03
2019-02-09T15:30:49.845Z,8.95
2019-02-09T15:32:50.005Z,8.92
2019-02-09T15:34:50.432Z,8.89
2019-02-09T15:36:50.652Z,8.89
2019-02-09T15:38:50.618Z,8.85
2019-02-09T15:40:50.679Z,8.78
2019-02-09T15:42:49.800Z,8.77
2019-02-09T15:44:49.990Z,8.76
2019-02-09T15:46:50.222Z,8.75
2019-02-09T15:48:50.256Z,8.75
2019-02-09T15:50:50.249Z,8.74
2019-02-09T15:52:50.295Z,8.75
2019-02-09T15:54:50.346Z,8.69
2019-02-09T15:56:50.617Z,8.65
2019-02-09T15:58:50.546Z,8.55
2019-02-09T16:00:50.673Z,8.52
2019-02-09T16:02:49.719Z,8.52
2019-02-09T16:04:50.117Z,8.38
2019-02-09T16:06:50.219Z,8.38
2019-02-09T16:08:50.170Z,8.33
2019-02-09T16:10:50.314Z,8.33
2019-02-09T16:12:50.322Z,8.36
2019-02-09T16:14:50.421Z,8.35
2019-02-09T16:16:50.609Z,8.33
2019-02-09T16:18:50.672Z,8.31
2019-02-09T16:20:49.732Z,8.21
2019-02-09T16:22:49.781Z,8.19
2019-02-09T16:24:49.797Z,8.14
2019-02-09T16:26:50.066Z,8.09
2019-02-09T16:28:50.100Z,8.04
2019-02-09T16:30:50.147Z,8.00
2019-02-09T16:32:50.178Z,8.00
2019-02-09T16:34:51.604Z,7.86
2019-02-09T16:36:50.693Z,7.75
2019-02-09T16:38:50.665Z,7.75
2019-02-09T16:40:50.672Z,7.66
2019-02-09T16:42:49.941Z,7.67
2019-02-09T16:44:49.859Z,7.69
2019-02-09T16:46:50.117Z,7.69
2019-02-09T16:48:50.184Z,7.75
2019-02-09T16:50:50.170Z,7.77
2019-02-09T16:52:50.314Z,7.74
2019-02-09T16:54:50.311Z,7.73
2019-02-09T16:56:50.707Z,7.71
2019-02-09T16:58:49.758Z,7.70
2019-02-09T17:00:49.838Z,7.67
2019-02-09T17:02:49.832Z,7.59
2019-02-09T17:04:50.379Z,7.58
2019-02-09T17:06:50.591Z,7.60
2019-02-09T17:08:50.585Z,7.59
2019-02-09T17:10:49.689Z,7.58
2019-02-09T17:12:49.707Z,7.52
2019-02-09T17:14:49.815Z,7.47
2019-02-09T17:16:50.068Z,7.42
2019-02-09T17:18:50.117Z,7.39
2019-02-09T17:20:50.163Z,7.38
2019-02-09T17:22:52.015Z,7.38
2019-02-09T17:24:50.036Z,7.40
2019-02-09T17:26:50.247Z,7.40
2019-02-09T17:28:50.248Z,7.41
2019-02-09T17:30:50.316Z,7.44
2019-02-09T17:32:50.336Z,7.46
2019-02-09T17:34:49.850Z,7.50
2019-02-09T17:36:50.153Z,7.50
2019-02-09T17:38:50.108Z,7.42
2019-02-09T17:40:50.084Z,7.33
2019-02-09T17:42:53.842Z,7.25
2019-02-09T17:44:49.791Z,7.25
2019-02-09T17:46:49.952Z,7.17
2019-02-09T17:48:49.968Z,7.11
2019-02-09T17:50:49.940Z,7.04
2019-02-09T17:52:49.959Z,6.85
2019-02-09T17:54:49.989Z,6.70
2019-02-09T17:56:50.291Z,6.59
2019-02-09T17:58:50.240Z,6.43
2019-02-09T18:00:50.302Z,6.37
2019-02-09T18:02:50.331Z,6.31
2019-02-09T18:04:49.811Z,6.26
2019-02-09T18:06:50.049Z,6.15
2019-02-09T18:08:50.043Z,6.14
2019-02-09T18:10:50.116Z,6.06
2019-02-09T18:12:50.120Z,5.84
2019-02-09T18:14:50.105Z,5.70
2019-02-09T18:16:50.294Z,5.61
2019-02-09T18:18:50.246Z,5.47
2019-02-09T18:20:50.311Z,5.45
2019-02-09T18:22:50.335Z,5.31
2019-02-09T18:24:50.294Z,5.36
2019-02-09T18:26:50.494Z,5.62
2019-02-09T18:28:50.558Z,5.72
2019-02-09T18:30:50.573Z,5.76
2019-02-09T18:32:50.522Z,5.73
2019-02-09T18:34:56.565Z,5.73
2019-02-09T18:36:50.713Z,5.69
2019-02-09T18:38:49.822Z,5.68
2019-02-09T18:40:49.862Z,5.71
2019-02-09T18:42:49.865Z,5.65
2019-02-09T18:44:49.891Z,5.67
2019-02-09T18:46:50.172Z,5.72
2019-02-09T18:48:50.226Z,5.78
2019-02-09T18:50:50.314Z,5.81
2019-02-09T18:52:50.351Z,5.80
2019-02-09T18:54:50.356Z,5.79
2019-02-09T18:56:50.622Z,5.78
2019-02-09T18:58:50.645Z,5.81
2019-02-09T19:00:50.651Z,5.83
2019-02-09T19:02:49.693Z,5.83
2019-02-09T19:04:50.093Z,5.83
2019-02-09T19:06:50.203Z,5.83
2019-02-09T19:08:50.170Z,5.71
2019-02-09T19:10:50.253Z,5.75
2019-02-09T19:12:50.224Z,5.77
2019-02-09T19:14:50.247Z,5.75
2019-02-09T19:16:50.356Z,5.77
2019-02-09T19:18:50.368Z,5.73
2019-02-09T19:20:50.411Z,5.70
2019-02-09T19:22:50.412Z,5.67
2019-02-09T19:24:50.503Z,5.64
2019-02-09T19:26:49.735Z,5.59
2019-02-09T19:28:49.794Z,5.59
2019-02-09T19:30:49.797Z,5.57
2019-02-09T19:32:49.915Z,5.55
2019-02-09T19:34:50.406Z,5.46
2019-02-09T19:36:50.549Z,5.37
2019-02-09T19:38:50.574Z,5.31
2019-02-09T19:40:50.515Z,5.24
2019-02-09T19:42:50.571Z,5.19
2019-02-09T19:44:49.745Z,5.19
2019-02-09T19:46:50.040Z,5.24
2019-02-09T19:48:50.052Z,5.27
2019-02-09T19:50:50.051Z,5.43
2019-02-09T19:52:50.074Z,5.43
2019-02-09T19:54:50.067Z,5.66
2019-02-09T19:56:50.222Z,5.79
2019-02-09T19:58:50.208Z,5.84
2019-02-09T20:00:50.248Z,5.92
2019-02-09T20:02:50.312Z,5.96
2019-02-09T20:04:49.836Z,6.03
2019-02-09T20:06:50.193Z,6.03
2019-02-09T20:08:50.227Z,6.33
2019-02-09T20:10:50.274Z,6.41
2019-02-09T20:12:50.274Z,6.44
2019-02-09T20:14:50.331Z,6.45
2019-02-09T20:16:50.523Z,6.43
2019-02-09T20:18:52.141Z,6.46
2019-02-09T20:20:50.147Z,6.49
2019-02-09T20:22:50.162Z,6.52
2019-02-09T20:24:50.179Z,6.54
2019-02-09T20:26:50.319Z,6.54
2019-02-09T20:28:50.411Z,6.49
2019-02-09T20:30:50.455Z,6.44
2019-02-09T20:32:50.629Z,6.40
2019-02-09T20:34:50.093Z,6.35
2019-02-09T20:36:50.365Z,6.26
2019-02-09T20:38:50.488Z,6.26
2019-02-09T20:40:50.645Z,6.08
2019-02-09T20:42:49.845Z,5.93
2019-02-09T20:44:49.951Z,5.86
2019-02-09T20:46:50.121Z,5.73
2019-02-09T20:48:50.246Z,5.63
2019-02-09T20:50:50.420Z,5.54
2019-02-09T20:52:50.491Z,5.48
2019-02-09T20:54:51.098Z,5.45
2019-02-09T20:56:49.870Z,5.42
2019-02-09T20:58:50.270Z,5.43
2019-02-09T21:00:50.622Z,5.46
2019-02-09T21:02:50.409Z,5.46
2019-02-09T21:04:50.467Z,5.39
2019-02-09T21:06:50.039Z,5.32
2019-02-09T21:08:50.210Z,5.17
2019-02-09T21:10:50.796Z,5.09
2019-02-09T21:12:50.104Z,5.09
2019-02-09T21:14:50.282Z,4.82
2019-02-09T21:16:52.167Z,4.74
2019-02-09T21:18:50.409Z,4.61
2019-02-09T21:20:50.631Z,4.55
2019-02-09T21:22:50.020Z,4.38
2019-02-09T21:24:50.171Z,4.27
2019-02-09T21:26:50.416Z,4.20
2019-02-09T21:28:50.540Z,4.18
2019-02-09T21:30:50.665Z,4.20
2019-02-09T21:32:49.915Z,4.24
2019-02-09T21:34:50.285Z,4.41
2019-02-09T21:36:50.553Z,4.41
2019-02-09T21:38:49.768Z,4.52
2019-02-09T21:40:49.839Z,4.49
2019-02-09T21:42:49.918Z,4.41
2019-02-09T21:44:50.090Z,4.31
2019-02-09T21:46:50.416Z,4.16
2019-02-09T21:48:50.641Z,4.04
2019-02-09T21:50:49.859Z,3.96
2019-02-09T21:52:50.165Z,4.00
2019-02-09T21:54:50.507Z,4.09
2019-02-09T21:56:49.812Z,4.07
2019-02-09T21:58:50.142Z,4.03
2019-02-09T22:00:50.284Z,4.03
2019-02-09T22:02:50.377Z,4.05
2019-02-09T22:04:50.042Z,4.04
2019-02-09T22:06:50.399Z,4.00
2019-02-09T22:08:50.554Z,3.96
2019-02-09T22:10:49.906Z,4.00
2019-02-09T22:12:50.531Z,4.00
2019-02-09T22:14:50.398Z,3.98
2019-02-09T22:16:50.070Z,3.93
2019-02-09T22:18:51.288Z,3.85
2019-02-09T22:20:53.298Z,3.79
2019-02-09T22:22:50.509Z,3.72
2019-02-09T22:24:49.890Z,3.69
2019-02-09T22:26:50.504Z,3.70
2019-02-09T22:28:49.859Z,3.73
2019-02-09T22:30:50.268Z,3.77
2019-02-09T22:32:51.020Z,3.81
2019-02-09T22:34:49.739Z,3.83
2019-02-09T22:36:50.325Z,3.92
2019-02-09T22:38:50.695Z,3.96
2019-02-09T22:40:49.913Z,4.01
2019-02-09T22:42:50.128Z,4.02
2019-02-09T22:44:50.472Z,4.09
2019-02-09T22:46:49.842Z,4.08
2019-02-09T22:48:50.169Z,4.05
2019-02-09T22:50:50.365Z,3.96
2019-02-09T22:52:50.547Z,3.93
2019-02-09T22:54:49.743Z,3.93
2019-02-09T22:56:50.032Z,3.94
2019-02-09T22:58:50.214Z,3.91
2019-02-09T23:00:50.341Z,3.91
2019-02-09T23:02:50.331Z,3.90
2019-02-09T23:04:49.825Z,3.82
2019-02-09T23:06:53.257Z,3.76
2019-02-09T23:08:50.273Z,3.60
2019-02-09T23:10:50.456Z,3.56
2019-02-09T23:12:50.475Z,3.56
2019-02-09T23:14:50.546Z,3.59
2019-02-09T23:16:49.826Z,3.61
2019-02-09T23:18:50.045Z,3.61
2019-02-09T23:20:50.093Z,3.61
2019-02-09T23:22:50.184Z,3.65
2019-02-09T23:24:50.225Z,3.67
2019-02-09T23:26:50.463Z,3.67
2019-02-09T23:28:49.717Z,3.66
2019-02-09T23:30:49.719Z,3.64
2019-02-09T23:32:49.964Z,3.64
2019-02-09T23:34:50.533Z,3.63
2019-02-09T23:36:49.920Z,3.66
2019-02-09T23:38:50.117Z,3.69
2019-02-09T23:40:50.219Z,3.76
2019-02-09T23:42:50.342Z,3.87
2019-02-09T23:44:50.500Z,3.93
2019-02-09T23:46:49.856Z,4.00
2019-02-09T23:48:49.950Z,4.00
2019-02-09T23:50:49.981Z,3.95
2019-02-09T23:52:50.148Z,3.97
2019-02-09T23:54:50.229Z,3.94
2019-02-09T23:56:50.488Z,3.89
2019-02-09T23:58:50.657Z,3.77
